Time;durP1;ratioP1;P1;durP2;ratioP2;P2;SDS_P1;SDS_P2;PMS_P1;PMS_P2;Temp;Humidity;BMP_temperature;BMP_pressure;BME280_temperature;BME280_humidity;BME280_pressure;Samples;Min_cycle;Max_cycle;Signal;HPM_P1;HPM_P2
2023/03/28 00:00:11;;;;;;;;;;;25.80;99.90;;;;;;5081711;28;19947;-68
2023/03/28 00:02:38;;;;;;;;;;;25.70;99.90;;;;;;5100321;28;19912;-70
2023/03/28 00:05:06;;;;;;;;;;;25.60;99.90;;;;;;5098914;28;20103;-69
2023/03/28 00:07:33;;;;;;;;;;;25.70;99.90;;;;;;5099079;28;19960;-71
2023/03/28 00:10:00;;;;;;;;;;;25.80;99.90;;;;;;5099000;28;19915;-69
2023/03/28 00:12:27;;;;;;;;;;;25.90;99.90;;;;;;5100149;28;19998;-69
2023/03/28 00:14:56;;;;;;;;;;;26.00;99.90;;;;;;5099619;28;19915;-68
2023/03/28 00:17:23;;;;;;;;;;;26.10;99.90;;;;;;5099904;28;20348;-70
2023/03/28 00:19:52;;;;;;;;;;;26.20;99.90;;;;;;5099950;28;20310;-69
2023/03/28 00:22:21;;;;;;;;;;;26.30;99.90;;;;;;5099701;28;20376;-68
2023/03/28 00:24:49;;;;;;;;;;;26.40;99.90;;;;;;5099356;28;19907;-69
2023/03/28 00:27:16;;;;;;;;;;;26.50;99.90;;;;;;5099272;28;19907;-70
2023/03/28 00:29:43;;;;;;;;;;;26.60;99.90;;;;;;5100149;28;19908;-70
2023/03/28 00:32:10;;;;;;;;;;;26.60;99.90;;;;;;5099548;28;19912;-69
2023/03/28 00:34:36;;;;;;;;;;;26.70;99.90;;;;;;5099562;28;20352;-68
2023/03/28 00:37:04;;;;;;;;;;;26.70;99.90;;;;;;5099254;28;19908;-69
2023/03/28 00:39:31;;;;;;;;;;;26.90;99.90;;;;;;5099743;28;20316;-69
2023/03/28 00:42:00;;;;;;;;;;;26.90;99.90;;;;;;5081263;28;19939;-68
2023/03/28 00:44:47;;;;;;;;;;;26.90;99.60;;;;;;5098502;28;20297;-67
2023/03/28 00:47:20;;;;;;;;;;;26.90;99.60;;;;;;5099561;28;19908;-68
2023/03/28 00:49:48;;;;;;;;;;;26.70;98.90;;;;;;5100354;28;19907;-70
2023/03/28 00:52:16;;;;;;;;;;;26.70;99.40;;;;;;5099416;28;20349;-70
2023/03/28 00:54:43;;;;;;;;;;;26.80;99.40;;;;;;5099789;28;19908;-68
2023/03/28 00:57:11;;;;;;;;;;;26.80;99.10;;;;;;5098320;28;20357;-68
2023/03/28 00:59:38;;;;;;;;;;;26.80;99.00;;;;;;5099403;28;20173;-68
2023/03/28 01:02:05;;;;;;;;;;;26.80;98.80;;;;;;5099150;28;20300;-69
2023/03/28 01:04:48;;;;;;;;;;;26.70;99.40;;;;;;5099083;28;19912;-69
2023/03/28 01:07:15;;;;;;;;;;;26.70;99.90;;;;;;5098160;28;20540;-69
2023/03/28 01:09:42;;;;;;;;;;;26.70;99.90;;;;;;5098849;28;19911;-70
2023/03/28 01:12:09;;;;;;;;;;;26.60;99.90;;;;;;5098929;28;19953;-69
2023/03/28 01:14:38;;;;;;;;;;;26.60;99.90;;;;;;5099136;28;19920;-69
2023/03/28 01:17:04;;;;;;;;;;;26.50;99.90;;;;;;5098656;28;20303;-70
2023/03/28 01:19:57;;;;;;;;;;;26.50;99.90;;;;;;5099046;28;20723;-70
2023/03/28 01:22:39;;;;;;;;;;;26.60;99.90;;;;;;5085481;28;19919;-68
2023/03/28 01:25:09;;;;;;;;;;;26.60;99.90;;;;;;5098684;28;19956;-68
2023/03/28 01:27:44;;;;;;;;;;;26.60;99.90;;;;;;5098717;28;20404;-69
2023/03/28 01:30:30;;;;;;;;;;;26.50;99.90;;;;;;5098099;28;19916;-69
2023/03/28 01:33:00;;;;;;;;;;;26.40;99.90;;;;;;5099104;28;19950;-68
2023/03/28 01:35:33;;;;;;;;;;;26.30;99.90;;;;;;5098115;28;19960;-68
2023/03/28 01:38:08;;;;;;;;;;;26.20;99.90;;;;;;5097773;28;19947;-71
2023/03/28 01:40:39;;;;;;;;;;;26.00;99.90;;;;;;5098650;28;19930;-66
2023/03/28 01:43:15;;;;;;;;;;;25.90;99.90;;;;;;5098472;28;19915;-66
2023/03/28 01:45:59;;;;;;;;;;;25.80;99.90;;;;;;5098665;28;19968;-69
2023/03/28 01:48:32;;;;;;;;;;;25.80;99.90;;;;;;5098520;28;19908;-69
2023/03/28 01:51:06;;;;;;;;;;;25.70;99.90;;;;;;5099354;28;19910;-69
2023/03/28 01:53:42;;;;;;;;;;;25.70;99.90;;;;;;5097956;28;19987;-69
2023/03/28 01:56:09;;;;;;;;;;;25.70;99.90;;;;;;5080117;28;19908;-71
2023/03/28 01:58:41;;;;;;;;;;;25.80;99.90;;;;;;5097952;28;19984;-67
2023/03/28 02:01:14;;;;;;;;;;;25.90;99.90;;;;;;5098475;28;19907;-68
2023/03/28 02:03:45;;;;;;;;;;;26.00;99.90;;;;;;5098064;28;19923;-69
2023/03/28 02:06:11;;;;;;;;;;;26.00;99.90;;;;;;5098188;28;20368;-70
2023/03/28 02:08:39;;;;;;;;;;;26.00;99.90;;;;;;5097731;28;20341;-67
2023/03/28 02:11:08;;;;;;;;;;;25.90;99.90;;;;;;5097811;28;20010;-69
2023/03/28 02:13:57;;;;;;;;;;;25.90;99.90;;;;;;5098174;28;20299;-68
2023/03/28 02:16:24;;;;;;;;;;;25.80;99.90;;;;;;5084821;28;19908;-69
2023/03/28 02:18:54;;;;;;;;;;;25.80;99.90;;;;;;5098554;28;19908;-67
2023/03/28 02:21:34;;;;;;;;;;;25.70;99.90;;;;;;5100772;28;19911;-70
2023/03/28 02:24:00;;;;;;;;;;;25.70;99.90;;;;;;5102608;28;20387;-68
2023/03/28 02:26:27;;;;;;;;;;;25.70;99.90;;;;;;5102146;28;20089;-69
2023/03/28 02:28:56;;;;;;;;;;;25.80;99.90;;;;;;5101893;28;19935;-69
2023/03/28 02:31:23;;;;;;;;;;;25.80;99.90;;;;;;5100903;28;19908;-69
2023/03/28 02:33:51;;;;;;;;;;;25.80;99.90;;;;;;5102237;28;19984;-71
2023/03/28 02:36:37;;;;;;;;;;;25.70;99.90;;;;;;5101248;28;19918;-69
2023/03/28 02:39:10;;;;;;;;;;;25.70;99.90;;;;;;5101884;28;19927;-68
2023/03/28 02:41:55;;;;;;;;;;;25.70;99.90;;;;;;5101481;28;20672;-69
2023/03/28 02:44:21;;;;;;;;;;;25.70;99.90;;;;;;5101654;28;19924;-71
2023/03/28 02:47:03;;;;;;;;;;;25.70;99.90;;;;;;5101594;28;19961;-70
2023/03/28 02:49:33;;;;;;;;;;;25.70;99.90;;;;;;5100826;28;20420;-68
2023/03/28 02:51:59;;;;;;;;;;;25.60;99.90;;;;;;5101790;28;20459;-68
2023/03/28 02:54:32;;;;;;;;;;;25.60;99.90;;;;;;5101018;28;19908;-70
2023/03/28 02:57:00;;;;;;;;;;;25.60;99.90;;;;;;5101337;28;20330;-69
2023/03/28 02:59:31;;;;;;;;;;;25.60;99.90;;;;;;5100814;28;19999;-69
2023/03/28 03:01:59;;;;;;;;;;;25.60;99.90;;;;;;5101341;28;19908;-70
2023/03/28 03:04:26;;;;;;;;;;;25.70;99.90;;;;;;5083289;28;19916;-68
2023/03/28 03:06:53;;;;;;;;;;;25.70;99.90;;;;;;5101519;28;20441;-70
2023/03/28 03:09:21;;;;;;;;;;;25.50;99.90;;;;;;5102305;28;20006;-68
2023/03/28 03:11:48;;;;;;;;;;;25.50;99.90;;;;;;5099989;28;19919;-69
2023/03/28 03:14:15;;;;;;;;;;;25.50;99.90;;;;;;5101998;28;19908;-69
2023/03/28 03:16:42;;;;;;;;;;;25.40;99.90;;;;;;5099406;28;19943;-69
2023/03/28 03:19:09;;;;;;;;;;;25.40;99.90;;;;;;5102116;28;19962;-68
2023/03/28 03:21:36;;;;;;;;;;;25.30;99.90;;;;;;5082019;28;19919;-70
2023/03/28 03:24:03;;;;;;;;;;;25.10;99.90;;;;;;5100615;28;20022;-69
2023/03/28 03:26:29;;;;;;;;;;;25.10;99.90;;;;;;5101304;28;20317;-70
2023/03/28 03:28:56;;;;;;;;;;;25.00;99.90;;;;;;5100809;28;19904;-71
2023/03/28 03:31:23;;;;;;;;;;;24.90;99.90;;;;;;5100606;28;19908;-69
2023/03/28 03:33:49;;;;;;;;;;;24.80;99.90;;;;;;5099258;28;19919;-69
2023/03/28 03:36:17;;;;;;;;;;;24.70;99.90;;;;;;5101609;28;19908;-68
2023/03/28 03:38:44;;;;;;;;;;;24.70;99.90;;;;;;5099156;28;19919;-70
2023/03/28 03:41:10;;;;;;;;;;;24.60;99.90;;;;;;5101064;28;20025;-70
2023/03/28 03:43:37;;;;;;;;;;;24.50;99.90;;;;;;5101352;28;20333;-69
2023/03/28 03:46:04;;;;;;;;;;;24.50;99.90;;;;;;5098523;28;19983;-70
2023/03/28 03:48:30;;;;;;;;;;;24.40;99.90;;;;;;5102210;28;19908;-70
2023/03/28 03:50:57;;;;;;;;;;;24.30;99.90;;;;;;5099070;28;19918;-69
2023/03/28 03:53:24;;;;;;;;;;;24.20;99.90;;;;;;5101038;28;19920;-68
2023/03/28 03:55:51;;;;;;;;;;;24.10;99.90;;;;;;5098223;28;19980;-71
2023/03/28 03:58:18;;;;;;;;;;;24.00;99.90;;;;;;5100873;28;19908;-71
2023/03/28 04:00:45;;;;;;;;;;;24.00;99.90;;;;;;5098034;28;19907;-69
2023/03/28 04:03:12;;;;;;;;;;;23.90;99.90;;;;;;5097867;28;20231;-72
2023/03/28 04:05:38;;;;;;;;;;;23.80;99.90;;;;;;5100086;28;19908;-69
2023/03/28 04:08:05;;;;;;;;;;;23.80;99.90;;;;;;5098105;28;19911;-69
2023/03/28 04:10:31;;;;;;;;;;;23.70;99.90;;;;;;5100895;28;20014;-69
2023/03/28 04:12:58;;;;;;;;;;;23.70;99.90;;;;;;5097113;28;20007;-68
2023/03/28 04:15:25;;;;;;;;;;;23.60;99.90;;;;;;5088827;28;20364;-69
2023/03/28 04:17:55;;;;;;;;;;;23.50;99.90;;;;;;5098813;28;20034;-69
2023/03/28 04:20:22;;;;;;;;;;;23.40;99.90;;;;;;5098533;28;19916;-68
2023/03/28 04:22:49;;;;;;;;;;;23.40;99.90;;;;;;5097785;28;19927;-69
2023/03/28 04:25:20;;;;;;;;;;;23.30;99.90;;;;;;5098158;28;19919;-69
2023/03/28 04:27:47;;;;;;;;;;;23.30;99.90;;;;;;5093707;28;20002;-72
2023/03/28 04:30:17;;;;;;;;;;;23.20;99.90;;;;;;5095779;28;19912;-68
2023/03/28 04:32:48;;;;;;;;;;;23.20;99.90;;;;;;5090559;28;19912;-69
2023/03/28 04:35:15;;;;;;;;;;;23.10;99.90;;;;;;5083710;28;19955;-68
2023/03/28 04:37:42;;;;;;;;;;;23.00;99.90;;;;;;5088196;28;19916;-70
2023/03/28 04:40:14;;;;;;;;;;;23.00;99.90;;;;;;5097352;28;19967;-71
2023/03/28 04:42:41;;;;;;;;;;;23.00;99.90;;;;;;5099555;28;19912;-70
2023/03/28 04:45:08;;;;;;;;;;;22.90;99.90;;;;;;5095226;28;19923;-73
2023/03/28 04:47:38;;;;;;;;;;;22.80;99.90;;;;;;5096636;28;20070;-81
2023/03/28 04:50:06;;;;;;;;;;;22.80;99.90;;;;;;5095102;28;19951;-78
2023/03/28 04:52:34;;;;;;;;;;;22.70;99.90;;;;;;5096349;28;20002;-71
2023/03/28 04:55:00;;;;;;;;;;;22.60;99.90;;;;;;5096785;28;20006;-72
2023/03/28 04:57:27;;;;;;;;;;;22.50;99.90;;;;;;5092474;28;20341;-73
2023/03/28 04:59:54;;;;;;;;;;;22.30;99.90;;;;;;5078301;28;19912;-70
2023/03/28 05:02:21;;;;;;;;;;;22.10;99.90;;;;;;5095324;28;19908;-74
2023/03/28 05:04:48;;;;;;;;;;;22.00;99.90;;;;;;5095567;28;19916;-76
2023/03/28 05:07:14;;;;;;;;;;;21.90;99.90;;;;;;5095065;28;19912;-70
2023/03/28 05:09:41;;;;;;;;;;;21.80;99.90;;;;;;5088788;28;19964;-70
2023/03/28 05:12:08;;;;;;;;;;;21.70;99.90;;;;;;5090442;28;19912;-70
2023/03/28 05:14:35;;;;;;;;;;;21.60;99.90;;;;;;5091673;28;19937;-73
2023/03/28 05:17:01;;;;;;;;;;;21.60;99.90;;;;;;5101033;28;20666;-70
2023/03/28 05:19:28;;;;;;;;;;;21.50;99.90;;;;;;5105982;28;19926;-72
2023/03/28 05:21:55;;;;;;;;;;;21.60;99.90;;;;;;5098560;28;19912;-73
2023/03/28 05:24:21;;;;;;;;;;;21.60;99.90;;;;;;5092669;28;20068;-70
2023/03/28 05:26:48;;;;;;;;;;;21.70;99.90;;;;;;5093763;28;19915;-70
2023/03/28 05:29:15;;;;;;;;;;;21.70;99.90;;;;;;5096086;28;19912;-70
2023/03/28 05:31:41;;;;;;;;;;;21.90;99.90;;;;;;5093664;28;19912;-75
2023/03/28 05:34:08;;;;;;;;;;;22.00;99.90;;;;;;5092709;28;19924;-74
2023/03/28 05:36:34;;;;;;;;;;;22.10;99.90;;;;;;5090617;28;19927;-70
2023/03/28 05:39:01;;;;;;;;;;;22.10;99.90;;;;;;5095455;28;20127;-71
2023/03/28 05:41:28;;;;;;;;;;;22.10;99.90;;;;;;5094852;28;20066;-72
2023/03/28 05:43:55;;;;;;;;;;;22.10;99.90;;;;;;5092398;28;19920;-69
2023/03/28 05:46:21;;;;;;;;;;;22.10;99.90;;;;;;5091887;28;20391;-69
2023/03/28 05:48:48;;;;;;;;;;;22.00;99.90;;;;;;5093966;28;19916;-67
2023/03/28 05:51:15;;;;;;;;;;;22.00;99.90;;;;;;5092830;28;20431;-68
2023/03/28 05:53:43;;;;;;;;;;;22.00;99.90;;;;;;5088680;28;19912;-70
2023/03/28 05:56:09;;;;;;;;;;;22.00;99.90;;;;;;5097509;28;19918;-72
2023/03/28 05:58:36;;;;;;;;;;;22.00;99.90;;;;;;5098276;28;20364;-72
2023/03/28 06:01:04;;;;;;;;;;;22.00;99.90;;;;;;5099453;28;20317;-72
2023/03/28 06:03:30;;;;;;;;;;;21.90;99.90;;;;;;5095454;27;19923;-73
2023/03/28 06:05:57;;;;;;;;;;;21.90;99.90;;;;;;5095710;28;20272;-69
2023/03/28 06:08:24;;;;;;;;;;;21.90;99.90;;;;;;5098836;27;19969;-69
2023/03/28 06:10:50;;;;;;;;;;;21.90;99.90;;;;;;5097593;28;19911;-70
2023/03/28 06:13:18;;;;;;;;;;;21.90;99.90;;;;;;5100411;27;19919;-70
2023/03/28 06:15:45;;;;;;;;;;;21.90;99.90;;;;;;5076846;28;20181;-70
2023/03/28 06:18:11;;;;;;;;;;;21.90;99.90;;;;;;5099912;28;19912;-71
2023/03/28 06:20:38;;;;;;;;;;;21.90;99.90;;;;;;5078715;28;19919;-70
2023/03/28 06:23:05;;;;;;;;;;;22.00;99.90;;;;;;5097449;28;20037;-70
2023/03/28 06:25:31;;;;;;;;;;;21.90;99.90;;;;;;5095988;28;20435;-71
2023/03/28 06:27:58;;;;;;;;;;;21.80;99.90;;;;;;5094905;28;19939;-71
2023/03/28 06:30:24;;;;;;;;;;;21.80;99.90;;;;;;5100442;27;19924;-68
2023/03/28 06:32:51;;;;;;;;;;;21.80;99.90;;;;;;5099334;28;20710;-70
2023/03/28 06:35:18;;;;;;;;;;;21.70;99.90;;;;;;5096884;28;20003;-70
2023/03/28 06:37:45;;;;;;;;;;;21.70;99.90;;;;;;5092117;28;19918;-69
2023/03/28 06:40:11;;;;;;;;;;;21.70;99.90;;;;;;5098585;27;19919;-70
2023/03/28 06:42:38;;;;;;;;;;;21.70;99.90;;;;;;5098239;28;20288;-69
2023/03/28 06:45:05;;;;;;;;;;;21.60;99.90;;;;;;5096183;28;19923;-68
2023/03/28 06:47:31;;;;;;;;;;;21.60;99.90;;;;;;5098188;28;20018;-71
2023/03/28 06:49:58;;;;;;;;;;;21.60;99.90;;;;;;5095079;28;20011;-70
2023/03/28 06:52:25;;;;;;;;;;;21.60;99.90;;;;;;5099008;28;19960;-71
2023/03/28 06:54:52;;;;;;;;;;;21.50;99.90;;;;;;5080182;28;19920;-70
2023/03/28 06:57:18;;;;;;;;;;;21.60;99.90;;;;;;5100224;28;20351;-71
2023/03/28 06:59:45;;;;;;;;;;;21.60;99.90;;;;;;5080978;28;19966;-70
2023/03/28 07:02:12;;;;;;;;;;;21.50;99.90;;;;;;5100399;28;19935;-70
2023/03/28 07:04:38;;;;;;;;;;;21.50;99.90;;;;;;5099843;28;19920;-69
2023/03/28 07:07:06;;;;;;;;;;;21.50;99.90;;;;;;5099030;28;20030;-69
2023/03/28 07:09:33;;;;;;;;;;;21.50;99.90;;;;;;5089358;27;19946;-69
2023/03/28 07:11:59;;;;;;;;;;;21.50;99.90;;;;;;5078070;28;20379;-70
2023/03/28 07:14:26;;;;;;;;;;;21.50;99.90;;;;;;5089937;28;19912;-71
2023/03/28 07:16:53;;;;;;;;;;;21.50;99.90;;;;;;5098697;28;19908;-71
2023/03/28 07:19:21;;;;;;;;;;;21.40;99.90;;;;;;5098206;28;20423;-72
2023/03/28 07:21:48;;;;;;;;;;;21.50;99.90;;;;;;5097567;28;19914;-71
2023/03/28 07:24:14;;;;;;;;;;;21.40;99.90;;;;;;5084003;28;19992;-71
2023/03/28 07:26:41;;;;;;;;;;;21.30;99.90;;;;;;5081815;28;19946;-70
2023/03/28 07:29:08;;;;;;;;;;;21.30;99.90;;;;;;5079973;28;19908;-72
2023/03/28 07:31:34;;;;;;;;;;;21.30;99.90;;;;;;5080648;28;20360;-70
2023/03/28 07:34:01;;;;;;;;;;;21.30;99.90;;;;;;5080684;28;20276;-72
2023/03/28 07:36:28;;;;;;;;;;;21.20;99.90;;;;;;5094582;28;19912;-71
2023/03/28 07:38:55;;;;;;;;;;;21.20;99.90;;;;;;5098422;28;19920;-71
2023/03/28 07:41:22;;;;;;;;;;;21.20;99.90;;;;;;5099267;28;19912;-72
2023/03/28 07:43:49;;;;;;;;;;;21.20;99.90;;;;;;5099953;28;19968;-70
2023/03/28 07:46:15;;;;;;;;;;;21.20;99.90;;;;;;5078409;28;19919;-69
2023/03/28 07:48:44;;;;;;;;;;;21.20;99.90;;;;;;5094362;28;19980;-72
2023/03/28 07:51:11;;;;;;;;;;;21.20;99.90;;;;;;5099892;28;19970;-72
2023/03/28 07:53:38;;;;;;;;;;;21.10;99.90;;;;;;5099525;28;19931;-71
2023/03/28 07:56:10;;;;;;;;;;;21.10;99.90;;;;;;5098801;28;19907;-70
2023/03/28 07:58:38;;;;;;;;;;;21.10;99.90;;;;;;5092529;28;19935;-69
2023/03/28 08:01:06;;;;;;;;;;;21.00;99.90;;;;;;5083510;28;19919;-70
2023/03/28 08:03:32;;;;;;;;;;;21.10;99.90;;;;;;5076557;28;20396;-70
2023/03/28 08:06:04;;;;;;;;;;;21.00;99.90;;;;;;5061031;28;20019;-71
2023/03/28 08:08:31;;;;;;;;;;;21.00;99.90;;;;;;5083275;28;19992;-70
2023/03/28 08:10:58;;;;;;;;;;;20.90;99.90;;;;;;5079496;28;19912;-73
2023/03/28 08:13:25;;;;;;;;;;;20.90;99.90;;;;;;5092608;28;20006;-70
2023/03/28 08:15:53;;;;;;;;;;;20.90;99.90;;;;;;5099911;28;20050;-70
2023/03/28 08:18:20;;;;;;;;;;;20.90;99.90;;;;;;5087905;28;19964;-72
2023/03/28 08:20:47;;;;;;;;;;;20.90;99.90;;;;;;5084079;28;19915;-71
2023/03/28 08:23:14;;;;;;;;;;;20.90;99.90;;;;;;5079250;28;19913;-72
2023/03/28 08:25:41;;;;;;;;;;;20.90;99.90;;;;;;5081005;28;19908;-70
2023/03/28 08:28:08;;;;;;;;;;;20.90;99.90;;;;;;5086094;28;19912;-69
2023/03/28 08:30:36;;;;;;;;;;;21.00;99.90;;;;;;5093268;28;19907;-69
2023/03/28 08:33:03;;;;;;;;;;;21.00;99.90;;;;;;5081390;28;20008;-69
2023/03/28 08:35:30;;;;;;;;;;;21.00;99.90;;;;;;5097615;28;20268;-70
2023/03/28 08:37:57;;;;;;;;;;;21.00;99.90;;;;;;5088251;28;19916;-70
2023/03/28 08:40:25;;;;;;;;;;;21.00;99.90;;;;;;5087815;28;20326;-72
2023/03/28 08:43:26;;;;;;;;;;;21.00;99.90;;;;;;5091640;28;20008;-70
2023/03/28 08:45:55;;;;;;;;;;;21.00;99.90;;;;;;5015979;28;19913;-70
2023/03/28 08:48:32;;;;;;;;;;;21.00;99.90;;;;;;5068192;28;19912;-71
2023/03/28 08:51:18;;;;;;;;;;;20.90;99.90;;;;;;5085924;28;19912;-70
2023/03/28 08:53:51;;;;;;;;;;;20.90;99.90;;;;;;5094680;28;19987;-69
2023/03/28 08:56:18;;;;;;;;;;;20.90;99.90;;;;;;5098691;28;19946;-69
2023/03/28 08:59:03;;;;;;;;;;;20.90;99.90;;;;;;5098084;28;19912;-70
2023/03/28 09:01:31;;;;;;;;;;;20.90;99.90;;;;;;5078340;28;19919;-69
2023/03/28 09:04:01;;;;;;;;;;;20.90;99.90;;;;;;5093564;28;19920;-69
2023/03/28 09:06:35;;;;;;;;;;;20.90;99.90;;;;;;5095458;28;19911;-69
2023/03/28 09:09:10;;;;;;;;;;;20.90;99.90;;;;;;5096631;27;19912;-69
2023/03/28 09:11:40;;;;;;;;;;;21.00;99.90;;;;;;5091054;28;19942;-70
2023/03/28 09:14:15;;;;;;;;;;;21.00;99.90;;;;;;5094000;27;20287;-71
2023/03/28 09:17:00;;;;;;;;;;;21.00;99.90;;;;;;5093211;28;19919;-72
2023/03/28 09:19:39;;;;;;;;;;;21.10;99.90;;;;;;5081096;28;19949;-70
2023/03/28 09:22:05;;;;;;;;;;;21.00;99.90;;;;;;5078469;28;20000;-73
2023/03/28 09:24:48;;;;;;;;;;;21.10;99.90;;;;;;5089590;28;20381;-70
2023/03/28 09:27:21;;;;;;;;;;;21.10;99.90;;;;;;5086567;28;19919;-72
2023/03/28 09:29:49;;;;;;;;;;;21.10;99.90;;;;;;5096430;28;19969;-71
2023/03/28 09:32:24;;;;;;;;;;;21.10;99.90;;;;;;5097583;28;19922;-73
2023/03/28 09:34:51;;;;;;;;;;;21.00;99.90;;;;;;5089774;28;19947;-70
2023/03/28 09:37:18;;;;;;;;;;;21.00;99.90;;;;;;5094172;28;19938;-72
2023/03/28 09:39:48;;;;;;;;;;;21.00;99.90;;;;;;5096442;28;19989;-70
2023/03/28 09:42:21;;;;;;;;;;;21.00;99.90;;;;;;5080469;28;19920;-71
2023/03/28 09:44:55;;;;;;;;;;;20.90;99.90;;;;;;5081842;28;19934;-72
2023/03/28 09:47:22;;;;;;;;;;;20.90;99.90;;;;;;5085555;28;20269;-70
2023/03/28 09:49:48;;;;;;;;;;;20.80;99.90;;;;;;5107175;28;20283;-71
2023/03/28 09:52:18;;;;;;;;;;;20.80;99.90;;;;;;5094129;28;19916;-70
2023/03/28 09:54:44;;;;;;;;;;;20.80;99.90;;;;;;5091902;28;19912;-72
2023/03/28 09:57:11;;;;;;;;;;;20.80;99.90;;;;;;5077657;28;20261;-70
2023/03/28 09:59:38;;;;;;;;;;;20.80;99.90;;;;;;5085659;28;19986;-70
2023/03/28 10:02:05;;;;;;;;;;;20.80;99.90;;;;;;5094471;28;19908;-72
2023/03/28 10:04:33;;;;;;;;;;;20.80;99.90;;;;;;5092738;28;19927;-72
2023/03/28 10:07:09;;;;;;;;;;;20.80;99.90;;;;;;5096318;28;19937;-72
2023/03/28 10:09:49;;;;;;;;;;;20.80;99.90;;;;;;5091850;28;19914;-72
2023/03/28 10:12:24;;;;;;;;;;;20.80;99.90;;;;;;5093806;28;19908;-70
2023/03/28 10:14:51;;;;;;;;;;;20.70;99.90;;;;;;5095912;28;19916;-71
2023/03/28 10:17:30;;;;;;;;;;;20.70;99.90;;;;;;5097534;28;19915;-70
2023/03/28 10:20:16;;;;;;;;;;;20.70;99.90;;;;;;5093431;28;19911;-70
2023/03/28 10:22:45;;;;;;;;;;;20.70;99.90;;;;;;5091963;28;19958;-70
2023/03/28 10:25:22;;;;;;;;;;;20.80;99.90;;;;;;5096376;28;19911;-70
2023/03/28 10:27:50;;;;;;;;;;;20.80;99.90;;;;;;5096760;28;20335;-72
2023/03/28 10:30:22;;;;;;;;;;;20.70;99.90;;;;;;5091613;28;19951;-72
2023/03/28 10:33:07;;;;;;;;;;;20.70;99.90;;;;;;5082749;28;19965;-72
2023/03/28 10:35:35;;;;;;;;;;;20.70;99.90;;;;;;5098036;28;19919;-71
2023/03/28 10:38:03;;;;;;;;;;;20.80;99.90;;;;;;5096768;28;19908;-71
2023/03/28 10:40:30;;;;;;;;;;;20.70;99.90;;;;;;5098286;28;19926;-70
2023/03/28 10:42:58;;;;;;;;;;;20.70;99.90;;;;;;5099234;28;19915;-72
2023/03/28 10:45:42;;;;;;;;;;;20.70;99.90;;;;;;5083055;28;19960;-72
2023/03/28 10:48:14;;;;;;;;;;;20.70;99.90;;;;;;5080248;28;19951;-71
2023/03/28 10:50:46;;;;;;;;;;;20.70;99.90;;;;;;5083356;28;19919;-71
2023/03/28 10:53:31;;;;;;;;;;;20.60;99.90;;;;;;5088253;28;19919;-71
2023/03/28 10:56:13;;;;;;;;;;;20.60;99.90;;;;;;5079411;28;19913;-71
2023/03/28 10:58:42;;;;;;;;;;;20.60;99.90;;;;;;5081619;28;19948;-69
2023/03/28 11:01:18;;;;;;;;;;;20.50;99.90;;;;;;5061910;28;19928;-70
2023/03/28 11:03:59;;;;;;;;;;;20.50;99.90;;;;;;5092708;28;20264;-69
2023/03/28 11:06:30;;;;;;;;;;;20.50;99.90;;;;;;5100524;28;20364;-71
2023/03/28 11:09:06;;;;;;;;;;;20.50;99.90;;;;;;5100343;28;20328;-72
2023/03/28 11:11:49;;;;;;;;;;;20.40;99.90;;;;;;5090008;28;19919;-69
2023/03/28 11:14:27;;;;;;;;;;;20.40;99.90;;;;;;5096052;28;20014;-71
2023/03/28 11:17:32;;;;;;;;;;;20.40;99.90;;;;;;5089684;28;19912;-72
2023/03/28 11:19:59;;;;;;;;;;;20.40;99.90;;;;;;5053307;28;19942;-71
2023/03/28 11:22:29;;;;;;;;;;;20.40;99.90;;;;;;5022270;28;19908;-71
2023/03/28 11:25:05;;;;;;;;;;;20.40;99.90;;;;;;5068947;28;19913;-71
2023/03/28 11:27:32;;;;;;;;;;;20.40;99.90;;;;;;5080493;28;20332;-72
2023/03/28 11:30:01;;;;;;;;;;;20.40;99.90;;;;;;5086209;28;19912;-71
2023/03/28 11:32:33;;;;;;;;;;;20.40;99.90;;;;;;5092860;28;19948;-70
2023/03/28 11:35:15;;;;;;;;;;;20.40;99.90;;;;;;5100275;28;20356;-71
2023/03/28 11:38:01;;;;;;;;;;;20.40;99.90;;;;;;5102042;28;19907;-70
2023/03/28 11:40:34;;;;;;;;;;;20.40;99.90;;;;;;5100233;28;19927;-70
2023/03/28 11:43:02;;;;;;;;;;;20.40;99.90;;;;;;5094518;28;20015;-71
2023/03/28 11:45:40;;;;;;;;;;;20.40;99.90;;;;;;5079472;28;20277;-69
2023/03/28 11:48:11;;;;;;;;;;;20.40;99.90;;;;;;5079431;28;20009;-73
2023/03/28 11:50:45;;;;;;;;;;;20.40;99.90;;;;;;5078995;28;20520;-71
2023/03/28 11:53:18;;;;;;;;;;;20.40;99.90;;;;;;5084424;28;20081;-72
2023/03/28 11:55:56;;;;;;;;;;;20.30;99.90;;;;;;5088405;28;19990;-72
2023/03/28 11:58:25;;;;;;;;;;;20.30;99.90;;;;;;5078478;28;20353;-71
2023/03/28 12:00:59;;;;;;;;;;;20.30;99.90;;;;;;5080383;28;19908;-69
2023/03/28 12:03:41;;;;;;;;;;;20.30;99.90;;;;;;5086442;28;19920;-69
2023/03/28 12:06:22;;;;;;;;;;;20.30;99.90;;;;;;5099917;28;19912;-71
2023/03/28 12:09:03;;;;;;;;;;;20.30;99.90;;;;;;5100380;28;19952;-70
2023/03/28 12:11:37;;;;;;;;;;;20.30;99.90;;;;;;5098020;28;19911;-69
2023/03/28 12:14:19;;;;;;;;;;;20.30;99.90;;;;;;5087996;28;19912;-70
2023/03/28 12:16:48;;;;;;;;;;;20.40;99.90;;;;;;5088632;28;19995;-70
2023/03/28 12:19:18;;;;;;;;;;;20.40;99.90;;;;;;5089663;28;20718;-71
2023/03/28 12:21:50;;;;;;;;;;;20.40;99.90;;;;;;5079052;28;19915;-70
2023/03/28 12:24:24;;;;;;;;;;;20.40;99.90;;;;;;5083235;28;19920;-70
2023/03/28 12:26:51;;;;;;;;;;;20.30;99.90;;;;;;5061920;28;19994;-71
2023/03/28 12:29:21;;;;;;;;;;;20.40;99.90;;;;;;5079874;28;19908;-71
2023/03/28 12:31:51;;;;;;;;;;;20.30;99.90;;;;;;5079124;28;19920;-71
2023/03/28 12:34:18;;;;;;;;;;;20.40;99.90;;;;;;5093942;28;19918;-71
2023/03/28 12:36:50;;;;;;;;;;;20.40;99.90;;;;;;5098396;28;20597;-70
2023/03/28 12:39:21;;;;;;;;;;;20.20;99.90;;;;;;5083155;28;20427;-70
2023/03/28 12:41:48;;;;;;;;;;;20.40;99.90;;;;;;5078174;28;19918;-70
2023/03/28 12:44:16;;;;;;;;;;;20.40;99.90;;;;;;5095955;28;19919;-70
2023/03/28 12:46:52;;;;;;;;;;;20.50;99.90;;;;;;5079824;28;19973;-71
2023/03/28 12:49:24;;;;;;;;;;;20.50;99.90;;;;;;5099030;28;20561;-72
2023/03/28 12:51:52;;;;;;;;;;;20.50;99.90;;;;;;5099134;28;19908;-70
2023/03/28 12:54:19;;;;;;;;;;;20.50;99.90;;;;;;5081594;28;19923;-70
2023/03/28 12:57:21;;;;;;;;;;;20.50;99.90;;;;;;5077863;28;20007;-72
2023/03/28 12:59:48;;;;;;;;;;;20.50;99.90;;;;;;5052192;28;19912;-70
2023/03/28 13:02:25;;;;;;;;;;;20.50;99.90;;;;;;5081730;28;19920;-69
2023/03/28 13:04:58;;;;;;;;;;;20.50;99.90;;;;;;5077587;28;20376;-71
2023/03/28 13:07:37;;;;;;;;;;;20.50;99.90;;;;;;5095787;28;20635;-70
2023/03/28 13:10:07;;;;;;;;;;;20.50;99.90;;;;;;5099572;28;20408;-70
2023/03/28 13:12:43;;;;;;;;;;;20.50;99.90;;;;;;5095014;28;19998;-70
2023/03/28 13:15:13;;;;;;;;;;;20.50;99.90;;;;;;5098555;28;19919;-71
2023/03/28 13:17:46;;;;;;;;;;;20.50;99.90;;;;;;5097603;28;19912;-71
2023/03/28 13:20:16;;;;;;;;;;;20.50;99.90;;;;;;5080066;28;19908;-70
2023/03/28 13:22:53;;;;;;;;;;;20.40;99.90;;;;;;5077679;28;19920;-70
2023/03/28 13:25:35;;;;;;;;;;;20.40;99.90;;;;;;5078649;28;19982;-71
2023/03/28 13:28:11;;;;;;;;;;;20.50;99.90;;;;;;5078709;28;19912;-70
2023/03/28 13:30:45;;;;;;;;;;;20.50;99.90;;;;;;5077718;28;19912;-70
2023/03/28 13:33:15;;;;;;;;;;;20.50;99.90;;;;;;5082644;28;19923;-69
2023/03/28 13:35:49;;;;;;;;;;;20.40;99.90;;;;;;5097378;28;19912;-70
2023/03/28 13:38:22;;;;;;;;;;;20.40;99.90;;;;;;5098521;28;19908;-72
2023/03/28 13:40:53;;;;;;;;;;;20.40;99.90;;;;;;5097578;28;19935;-71
2023/03/28 13:43:22;;;;;;;;;;;20.40;99.90;;;;;;5093357;28;20338;-69
2023/03/28 13:45:50;;;;;;;;;;;20.30;99.90;;;;;;5077518;28;19909;-71
2023/03/28 13:48:17;;;;;;;;;;;20.30;99.90;;;;;;5078638;28;19908;-69
2023/03/28 13:50:44;;;;;;;;;;;20.30;99.90;;;;;;5088797;28;19912;-69
2023/03/28 13:53:11;;;;;;;;;;;20.30;99.90;;;;;;5094952;28;20038;-71
2023/03/28 13:55:38;;;;;;;;;;;20.30;99.90;;;;;;5078155;28;19915;-70
2023/03/28 13:58:04;;;;;;;;;;;20.30;99.90;;;;;;5078123;28;20360;-71
2023/03/28 14:00:31;;;;;;;;;;;20.30;99.90;;;;;;5078301;28;19987;-71
2023/03/28 14:03:02;;;;;;;;;;;20.30;99.90;;;;;;5092714;28;20364;-71
2023/03/28 14:05:29;;;;;;;;;;;20.30;99.90;;;;;;5082192;28;20411;-70
2023/03/28 14:08:24;;;;;;;;;;;20.30;99.90;;;;;;5097461;28;19912;-69
2023/03/28 14:10:51;;;;;;;;;;;20.30;99.90;;;;;;5095605;28;19981;-71
2023/03/28 14:13:21;;;;;;;;;;;20.30;99.90;;;;;;5092215;28;20030;-71
2023/03/28 14:15:50;;;;;;;;;;;20.30;99.90;;;;;;5077783;28;20302;-70
2023/03/28 14:18:46;;;;;;;;;;;20.30;99.90;;;;;;5081851;28;20289;-70
2023/03/28 14:21:13;;;;;;;;;;;20.30;99.90;;;;;;5077384;28;19995;-71
2023/03/28 14:23:43;;;;;;;;;;;20.30;99.90;;;;;;5090035;28;19923;-72
2023/03/28 14:26:20;;;;;;;;;;;20.30;99.90;;;;;;5100191;28;19907;-72
2023/03/28 14:28:49;;;;;;;;;;;20.30;99.90;;;;;;5095111;28;20040;-70
2023/03/28 14:31:44;;;;;;;;;;;20.30;99.90;;;;;;5082332;28;19912;-71
2023/03/28 14:34:35;;;;;;;;;;;20.20;99.90;;;;;;5073929;28;19934;-72